createdAt,value
2023-06-10T00:02:24.198Z,19.1
2023-06-10T00:05:31.432Z,19
2023-06-10T00:07:35.283Z,19
2023-06-10T00:09:39.073Z,19
2023-06-10T00:11:42.937Z,19
2023-06-10T00:15:53.867Z,19
2023-06-10T00:20:01.541Z,18.9
2023-06-10T00:26:12.935Z,18.9
2023-06-10T00:30:23.835Z,18.9
2023-06-10T00:32:27.715Z,18.9
2023-06-10T00:34:31.506Z,18.9
2023-06-10T00:53:09.238Z,18.7
2023-06-10T00:55:13.077Z,18.6
2023-06-10T00:57:20.265Z,18.5
2023-06-10T01:01:27.961Z,18.5
2023-06-10T01:02:31.539Z,18.4
2023-06-10T01:14:57.805Z,18.3
2023-06-10T01:17:01.662Z,18.2
2023-06-10T01:19:05.419Z,18.2
2023-06-10T01:21:09.254Z,18.2
2023-06-10T01:25:20.233Z,18.1
2023-06-10T01:27:24.092Z,18
2023-06-10T01:29:27.908Z,18
2023-06-10T01:33:35.602Z,17.8
2023-06-10T01:39:50.410Z,17.5
2023-06-10T01:41:54.261Z,17.4
2023-06-10T01:43:58.127Z,17.4
2023-06-10T01:46:01.959Z,17.4
2023-06-10T01:48:05.850Z,17.4
2023-06-10T01:52:13.447Z,17.4
2023-06-10T01:54:20.668Z,17.4
2023-06-10T01:56:24.498Z,17.4
2023-06-10T01:58:28.337Z,17.3
2023-06-10T01:59:31.903Z,17.3
2023-06-10T02:01:35.771Z,17.3
2023-06-10T02:03:39.685Z,17.3
2023-06-10T02:09:54.422Z,17.1
2023-06-10T02:11:58.247Z,17.1
2023-06-10T02:14:02.127Z,17
2023-06-10T02:16:05.976Z,17
2023-06-10T02:18:09.841Z,16.9
2023-06-10T02:20:13.609Z,16.9
2023-06-10T02:22:20.754Z,16.9
2023-06-10T02:24:24.637Z,16.8
2023-06-10T02:26:28.487Z,16.8
2023-06-10T02:28:32.348Z,16.8
2023-06-10T02:43:02.595Z,16.5
2023-06-10T02:47:10.308Z,16.5
2023-06-10T02:57:53.538Z,16.3
2023-06-10T02:59:57.407Z,16.3
2023-06-10T03:02:01.297Z,16.3
2023-06-10T03:04:08.413Z,16.2
2023-06-10T03:06:12.220Z,16.2
2023-06-10T03:10:19.924Z,16.2
2023-06-10T03:12:23.789Z,16.1
2023-06-10T03:14:27.640Z,16.1
2023-06-10T03:18:38.690Z,16
2023-06-10T03:33:09.007Z,15.7
2023-06-10T03:35:12.945Z,15.7
2023-06-10T03:39:20.497Z,15.7
2023-06-10T03:41:25.125Z,15.7
2023-06-10T03:43:28.958Z,15.7
2023-06-10T03:45:32.887Z,15.7
2023-06-10T03:47:40.009Z,15.6
2023-06-10T03:49:43.857Z,15.6
2023-06-10T03:54:55.157Z,15.7
2023-06-10T04:05:19.510Z,15.7
2023-06-10T04:07:23.187Z,15.7
2023-06-10T04:09:27.076Z,15.7
2023-06-10T04:11:30.946Z,15.7
2023-06-10T04:13:34.800Z,15.7
2023-06-10T04:15:41.970Z,15.7
2023-06-10T04:17:45.848Z,15.7
2023-06-10T04:19:49.667Z,15.8
2023-06-10T04:23:57.464Z,15.8
2023-06-10T04:26:01.292Z,16
2023-06-10T04:28:05.170Z,16.1
2023-06-10T04:30:12.328Z,16
2023-06-10T04:32:16.169Z,16
2023-06-10T04:34:20.064Z,16
2023-06-10T04:38:27.780Z,16.1
2023-06-10T04:42:35.541Z,16.3
2023-06-10T04:44:42.692Z,16.3
2023-06-10T04:46:46.525Z,16.3
2023-06-10T04:48:50.411Z,16.3
2023-06-10T04:49:53.980Z,16.3
2023-06-10T04:51:57.835Z,16.4
2023-06-10T04:56:05.595Z,17.6
2023-06-10T05:02:20.583Z,20.4
2023-06-10T05:04:24.308Z,20.9
2023-06-10T05:06:28.174Z,19.8
2023-06-10T05:08:32.024Z,18.6
2023-06-10T05:12:42.991Z,17.8
2023-06-10T05:29:17.097Z,19.4
2023-06-10T05:31:20.943Z,19.4
2023-06-10T05:33:24.784Z,18.8
2023-06-10T05:35:28.645Z,18.5
2023-06-10T05:37:32.483Z,18.6
2023-06-10T05:39:36.322Z,18.9
2023-06-10T05:43:47.312Z,18.6
2023-06-10T05:45:51.236Z,18.7
2023-06-10T05:46:54.732Z,18.9
2023-06-10T05:48:58.584Z,18.9
2023-06-10T05:51:02.411Z,18.9
2023-06-10T05:53:06.255Z,18.9
2023-06-10T05:55:13.418Z,19.2
2023-06-10T05:57:17.235Z,19.1
2023-06-10T05:59:21.062Z,19.2
2023-06-10T06:03:28.875Z,19.3
2023-06-10T06:05:32.585Z,19.5
2023-06-10T06:07:36.408Z,19.7
2023-06-10T06:09:43.495Z,19.7
2023-06-10T06:11:47.336Z,19.8
2023-06-10T06:13:53.468Z,19.8
2023-06-10T06:15:55.019Z,19.9
2023-06-10T06:17:58.841Z,19.9
2023-06-10T06:20:02.632Z,20.2
2023-06-10T06:24:13.598Z,20.4
2023-06-10T06:26:17.356Z,20.3
2023-06-10T06:28:21.144Z,20.3
2023-06-10T06:30:24.993Z,20.8
2023-06-10T06:32:28.877Z,21.4
2023-06-10T07:03:52.617Z,25
2023-06-10T07:08:03.488Z,25.9
2023-06-10T07:10:07.255Z,26.1
2023-06-10T07:18:22.380Z,27.1
2023-06-10T07:20:29.470Z,27.9
2023-06-10T07:22:33.230Z,27.9
2023-06-10T07:26:40.758Z,28.4
2023-06-10T07:28:44.502Z,28.2
2023-06-10T07:30:48.292Z,28.7
2023-06-10T07:32:52.026Z,28.9
2023-06-10T07:34:59.029Z,28
2023-06-10T07:39:06.486Z,28.7
2023-06-10T07:40:10.009Z,29
2023-06-10T07:42:13.688Z,29.1
2023-06-10T07:48:28.100Z,28.7
2023-06-10T07:50:31.814Z,28.3
2023-06-10T07:52:35.472Z,28.4
2023-06-10T07:56:42.811Z,29.5
2023-06-10T07:58:46.517Z,28.2
2023-06-10T08:02:57.343Z,29.7
2023-06-10T08:05:00.911Z,29.8
2023-06-10T08:07:04.557Z,28.9
2023-06-10T08:11:11.992Z,29.7
2023-06-10T08:13:15.595Z,29.4
2023-06-10T08:15:19.249Z,29.8
2023-06-10T08:17:26.314Z,29.9
2023-06-10T08:27:44.606Z,25.8
2023-06-10T08:29:48.366Z,25.4
2023-06-10T08:31:55.379Z,25.6
2023-06-10T08:33:58.980Z,25.6
2023-06-10T08:36:02.651Z,25.7
2023-06-10T08:41:13.443Z,25.8
2023-06-10T08:43:17.083Z,25.7
2023-06-10T08:45:24.073Z,25.9
2023-06-10T08:47:27.804Z,25.5
2023-06-10T08:51:35.048Z,25
2023-06-10T08:53:38.765Z,25
2023-06-10T08:59:53.034Z,26
2023-06-10T09:01:56.716Z,26.1
2023-06-10T09:06:04.011Z,26.2
2023-06-10T09:08:07.715Z,26.5
2023-06-10T09:10:11.692Z,26.5
2023-06-10T09:12:15.016Z,26.5
2023-06-10T09:18:29.381Z,26.7
2023-06-10T09:28:51.011Z,27.2
2023-06-10T09:30:54.634Z,26.9
2023-06-10T09:32:58.478Z,27
2023-06-10T09:34:01.775Z,27.3
2023-06-10T09:36:05.431Z,27.5
2023-06-10T09:38:10.848Z,27.1
2023-06-10T09:42:20.012Z,27.1
2023-06-10T09:44:23.370Z,27.3
2023-06-10T09:48:30.647Z,27.5
2023-06-10T09:50:34.357Z,27.8
2023-06-10T10:19:33.269Z,28.6
2023-06-10T10:27:50.853Z,28.2
2023-06-10T10:42:39.515Z,29.2
2023-06-10T10:44:43.008Z,29
2023-06-10T10:55:04.188Z,29.5
2023-06-10T10:59:11.368Z,28.5
2023-06-10T11:01:15.001Z,28.9
2023-06-10T11:07:28.878Z,29.3
2023-06-10T11:09:32.294Z,29.3
2023-06-10T11:27:06.880Z,28.8
2023-06-10T11:29:10.349Z,28.7
2023-06-10T11:31:13.915Z,29.1
2023-06-10T11:33:17.514Z,29.2
2023-06-10T11:35:24.069Z,29.7
2023-06-10T11:37:27.558Z,29.6
2023-06-10T11:39:31.115Z,29.7
2023-06-10T11:41:34.666Z,29.6
2023-06-10T11:43:38.242Z,29.6
2023-06-10T11:45:41.795Z,29.8
2023-06-10T11:47:45.397Z,29.8
2023-06-10T11:56:02.462Z,29.6
2023-06-10T12:00:09.353Z,29.9
2023-06-10T12:02:12.841Z,29.9
2023-06-10T12:04:19.849Z,30.6
2023-06-10T12:06:22.949Z,30.6
2023-06-10T12:08:26.424Z,29.8
2023-06-10T12:10:29.843Z,29.6
2023-06-10T12:12:33.266Z,30
2023-06-10T12:16:40.174Z,30.5
2023-06-10T12:20:50.303Z,29.9
2023-06-10T12:22:53.706Z,29.8
2023-06-10T12:30:07.467Z,29.6
2023-06-10T12:36:20.973Z,29.9
2023-06-10T12:38:24.358Z,29.7
2023-06-10T12:42:31.347Z,30
2023-06-10T12:44:34.764Z,29.9
2023-06-10T12:50:48.354Z,30.5
2023-06-10T12:52:51.785Z,30.4
2023-06-10T12:54:55.200Z,30.3
2023-06-10T12:56:58.660Z,30.3
2023-06-10T13:01:08.878Z,30.4
2023-06-10T13:03:12.340Z,30
2023-06-10T13:05:16.947Z,30
2023-06-10T13:17:39.657Z,30.1
2023-06-10T13:19:43.044Z,30
2023-06-10T13:20:46.362Z,29.8
2023-06-10T13:22:49.797Z,29.6
2023-06-10T13:35:13.834Z,30.1
2023-06-10T13:39:20.400Z,30.5
2023-06-10T13:41:23.812Z,30.4
2023-06-10T13:45:33.881Z,30.2
2023-06-10T13:47:37.369Z,30.4
2023-06-10T13:49:40.722Z,30.5
2023-06-10T13:57:57.606Z,30.2
2023-06-10T14:02:04.523Z,29.7
2023-06-10T14:06:11.295Z,30.4
2023-06-10T14:10:18.129Z,30.4
2023-06-10T14:12:24.846Z,30.2
2023-06-10T14:14:28.236Z,30.2
2023-06-10T14:16:31.725Z,30.2
2023-06-10T14:33:22.990Z,30.4
2023-06-10T14:35:26.341Z,30.3
2023-06-10T14:37:29.700Z,30.4
2023-06-10T14:43:43.155Z,30.4
2023-06-10T14:47:49.987Z,30
2023-06-10T14:49:53.377Z,30.2
2023-06-10T14:51:56.780Z,30.2
2023-06-10T14:54:03.380Z,30.4
2023-06-10T14:56:06.821Z,30.5
2023-06-10T14:58:10.218Z,30.6
2023-06-10T15:00:13.589Z,30.6
2023-06-10T15:02:16.989Z,30.4
2023-06-10T15:04:23.895Z,30.2
2023-06-10T15:06:23.744Z,30.3
2023-06-10T15:08:30.401Z,30.4
2023-06-10T15:10:33.740Z,30.3
2023-06-10T15:12:37.133Z,30.5
2023-06-10T15:21:57.183Z,30.4
2023-06-10T15:26:03.866Z,30
2023-06-10T15:28:07.225Z,30.1
2023-06-10T15:30:10.572Z,30.3
2023-06-10T15:32:19.019Z,30.2
2023-06-10T15:34:17.255Z,30.2
2023-06-10T15:36:23.823Z,30.2
2023-06-10T15:38:27.174Z,30
2023-06-10T15:40:30.516Z,29.9
2023-06-10T15:42:33.951Z,30
2023-06-10T15:46:40.684Z,30.1
2023-06-10T15:48:43.993Z,30.1
2023-06-10T15:54:57.389Z,29.8
2023-06-10T15:59:05.909Z,29.8
2023-06-10T16:01:09.277Z,29.8
2023-06-10T16:03:12.787Z,30.1
2023-06-10T16:05:19.332Z,29.8
2023-06-10T16:10:29.505Z,29.8
2023-06-10T16:12:32.936Z,29.8
2023-06-10T16:14:36.372Z,29.8
2023-06-10T16:16:39.803Z,29.7
2023-06-10T16:18:46.431Z,29.7
2023-06-10T16:20:49.874Z,29.7
2023-06-10T16:22:53.309Z,29.4
2023-06-10T16:24:56.833Z,29.6
2023-06-10T16:33:13.871Z,29.5
2023-06-10T16:35:17.257Z,29.6
2023-06-10T16:37:20.696Z,29.7
2023-06-10T16:43:30.994Z,29.7
2023-06-10T16:45:34.472Z,29.6
2023-06-10T16:51:48.030Z,29.5
2023-06-10T16:53:51.456Z,29.6
2023-06-10T16:55:54.892Z,29.3
2023-06-10T16:57:58.371Z,29.4
2023-06-10T17:00:01.813Z,29.4
2023-06-10T17:02:08.486Z,29.5
2023-06-10T17:04:11.962Z,29.5
2023-06-10T17:06:15.407Z,29.4
2023-06-10T17:09:22.335Z,29.5
2023-06-10T17:17:39.446Z,29.2
2023-06-10T17:19:42.815Z,29.1
2023-06-10T17:21:46.293Z,29.1
2023-06-10T17:23:49.806Z,29.2
2023-06-10T17:25:53.194Z,29.2
2023-06-10T17:27:56.741Z,29.1
2023-06-10T17:30:03.569Z,29
2023-06-10T17:32:07.073Z,29
2023-06-10T17:36:13.929Z,28.9
2023-06-10T17:40:20.807Z,29.2
2023-06-10T17:42:24.247Z,29.2
2023-06-10T17:44:31.078Z,28.8
2023-06-10T17:46:34.558Z,28.8
2023-06-10T17:48:37.997Z,28.8
2023-06-10T17:52:44.901Z,30.2
2023-06-10T18:19:57.254Z,32.5
2023-06-10T18:42:40.372Z,28
2023-06-10T18:50:53.832Z,27.4
2023-06-10T18:52:57.252Z,27.3
2023-06-10T18:55:03.920Z,27.1
2023-06-10T18:57:07.349Z,27
2023-06-10T18:59:10.799Z,27
2023-06-10T19:00:14.254Z,26.8
2023-06-10T19:02:17.915Z,26.8
2023-06-10T19:06:24.965Z,26.9
2023-06-10T19:10:35.465Z,26.6
2023-06-10T19:14:42.647Z,26.4
2023-06-10T19:16:46.272Z,26.3
2023-06-10T19:18:49.867Z,26.3
2023-06-10T19:20:53.486Z,26.4
2023-06-10T19:23:00.466Z,26.1
2023-06-10T19:25:04.042Z,26
2023-06-10T19:27:07.668Z,25.8
2023-06-10T19:29:11.333Z,25.7
2023-06-10T19:31:15.050Z,25.5
2023-06-10T19:33:18.675Z,25.4
2023-06-10T19:35:22.252Z,25.3
2023-06-10T19:37:29.262Z,25.3
2023-06-10T19:39:32.926Z,25.2
2023-06-10T19:43:40.265Z,25
2023-06-10T19:45:43.928Z,24.9
2023-06-10T19:47:47.643Z,24.8
2023-06-10T19:49:51.248Z,24.8
2023-06-10T19:51:58.252Z,24.7
2023-06-10T19:56:05.642Z,24.6
2023-06-10T19:57:09.165Z,24.4
2023-06-10T20:01:16.545Z,24.3
2023-06-10T20:03:20.329Z,24.2
2023-06-10T20:05:27.257Z,24.1
2023-06-10T20:07:30.968Z,24
2023-06-10T20:09:34.646Z,23.9
2023-06-10T20:11:38.345Z,23.7
2023-06-10T20:13:42.054Z,23.6
2023-06-10T20:17:49.513Z,23.5
2023-06-10T20:19:56.497Z,23.5
2023-06-10T20:22:00.217Z,23.4
2023-06-10T20:24:04.080Z,23.4
2023-06-10T20:26:07.660Z,23.3
2023-06-10T20:28:11.398Z,23.2
2023-06-10T20:30:15.129Z,23.1
2023-06-10T20:32:18.973Z,22.9
2023-06-10T20:34:25.919Z,22.8
2023-06-10T20:36:32.485Z,22.8
2023-06-10T20:38:33.327Z,22.7
2023-06-10T20:40:37.075Z,22.7
2023-06-10T20:42:40.789Z,22.7
2023-06-10T20:44:44.558Z,22.7
2023-06-10T20:46:48.263Z,22.7
2023-06-10T20:48:55.288Z,22.6
2023-06-10T20:50:59.001Z,22.5
2023-06-10T20:53:02.775Z,22.4
2023-06-10T20:54:06.313Z,22.3
2023-06-10T20:56:10.047Z,22.2
2023-06-10T20:58:13.809Z,22.2
2023-06-10T21:02:24.660Z,22.3
2023-06-10T21:10:39.598Z,22.1
2023-06-10T21:23:05.429Z,21.9
2023-06-10T21:25:09.570Z,21.9
2023-06-10T21:27:12.978Z,21.8
2023-06-10T21:31:23.842Z,21.8
2023-06-10T21:33:27.582Z,21.7
2023-06-10T21:35:31.349Z,21.7
2023-06-10T21:37:35.117Z,21.6
2023-06-10T21:43:46.432Z,21.5
2023-06-10T21:45:56.400Z,21.5
2023-06-10T21:47:57.350Z,21.4
2023-06-10T21:50:01.080Z,21.4
2023-06-10T21:52:25.772Z,21.4
2023-06-10T21:54:29.671Z,21.4
2023-06-10T21:56:34.995Z,21.4
2023-06-10T21:58:42.044Z,21.4
2023-06-10T22:00:45.892Z,21.3
2023-06-10T22:02:49.670Z,21.3
2023-06-10T22:09:00.967Z,21.2
2023-06-10T22:11:04.737Z,21.2
2023-06-10T22:13:11.834Z,21.1
2023-06-10T22:15:15.621Z,21.1
2023-06-10T22:17:19.527Z,21.1
2023-06-10T22:27:41.657Z,20.7
2023-06-10T22:29:45.437Z,20.6
2023-06-10T22:31:49.224Z,20.5
2023-06-10T22:33:53.049Z,20.5
2023-06-10T22:35:56.827Z,20.6
2023-06-10T22:44:15.353Z,20.7
2023-06-10T22:46:19.129Z,20.7
2023-06-10T22:47:22.779Z,20.7
2023-06-10T22:51:30.292Z,20.6
2023-06-10T22:53:34.095Z,20.6
2023-06-10T22:55:41.189Z,20.5
2023-06-10T22:57:45.018Z,20.5
2023-06-10T23:01:52.736Z,20.4
2023-06-10T23:03:56.473Z,20.4
2023-06-10T23:06:00.209Z,20.3
2023-06-10T23:08:03.995Z,20.3
2023-06-10T23:10:11.081Z,20.2
2023-06-10T23:22:33.907Z,20.1
2023-06-10T23:26:44.831Z,20
2023-06-10T23:28:48.629Z,20
2023-06-10T23:30:52.435Z,19.9
2023-06-10T23:32:56.330Z,19.9
2023-06-10T23:35:00.046Z,19.8
2023-06-10T23:44:22.113Z,19.6
2023-06-10T23:48:29.726Z,19.6
2023-06-10T23:50:33.567Z,19.5
2023-06-10T23:52:40.622Z,19.5
2023-06-10T23:54:44.459Z,19.5
2023-06-10T23:56:48.266Z,19.5
2023-06-10T23:58:52.071Z,19.5
